Active alerts


No alerts


weather webcam more information weather webcam


Thunder radar more information blitzortung!


Rain radar more information rain snow radar


Visit our other weather sites:

Template documentation
and downloads

And another site


Nearby METAR Reports

   
EBBR - Brussels International Airport, Belgium
Distance from station: W 9 mi
Updated: Aug 21 2019 9:20 am
Few Clouds  
Few Clouds  
   Wind: varies 2.3 mph
Wind: varies 2.3 mph
Temperature: 71.6°F
Dew Point: 48.2°F
Humidity: 44%
Barometer: 30.33 inHg
Clouds: Few Clouds
Visibility: More than 6 mi
Cloud details: Few Clouds 4800 ft
EBBR 211420Z VRB02KT 9999 FEW048 22/09 Q1027 NOSIG
EBBE - Beauvechain (Bevekom), Belgium
Distance from station: SSE 10 mi
Updated: Aug 21 2019 8:55 am
Partly Cloudy  
Partly Cloudy  
   Wind: varies 1.2 mph
Wind: varies 1.2 mph
Temperature: 69.8°F
Dew Point: 44.6°F
Humidity: 40%
Barometer: 30.33 inHg
Clouds: Partly Cloudy
Visibility: More than 6 mi
Cloud details: Few Clouds 4500 ft,
Partly Cloudy 25000 ft
EBBE 211355Z VRB01KT 9999 FEW045 SCT250 21/07 Q1027 BLU BLU
EBDT - Schaffen, Belgium
Distance from station: ENE 18 mi
Updated: Aug 21 2019 8:55 am
Clear  
Clear  
   Wind: NE 4.6 mph
Wind: NE 4.6 mph
Temperature: 71.6°F
Dew Point: 50°F
Humidity: 47%
Barometer: 30.33 inHg
Clouds: Clear
Visibility: More than 6 mi
Cloud details: Clear
EBDT 211355Z AUTO 05004KT 9999 NCD 22/10 Q1027 BLU
EBAW - Antwerp/Deurne, Belgium
Distance from station: NNW 23 mi
Updated: Aug 21 2019 8:50 am
Clear  
Clear  
   Wind: East 4.6 mph
Wind: East 4.6 mph
Temperature: 71.6°F
Dew Point: 48.2°F
Humidity: 44%
Barometer: 30.33 inHg
Visibility: More than 6 mi
Cloud details: Clear
EBAW 211350Z 08004KT 360V140 CAVOK 22/09 Q1027 NOSIG
EBCI - Charleroi/Gosselies, Belgium
Distance from station: SSW 32 mi
Updated: Aug 21 2019 9:20 am
Clear  
Clear  
   Wind: NNE 4.6 mph
Wind: NNE 4.6 mph
Temperature: 71.6°F
Dew Point: 44.6°F
Humidity: 38%
Barometer: 30.33 inHg
Visibility: More than 6 mi
Cloud details: Clear
EBCI 211420Z 02004KT 320V120 CAVOK 22/07 Q1027 NOSIG
EBLG - Bierset/Liege, Belgium
Distance from station: ESE 38 mi
Updated: Aug 21 2019 9:20 am
Clear  
Clear  
   Wind: varies 4.6 mph
Wind: varies 4.6 mph
Temperature: 71.6°F
Dew Point: 48.2°F
Humidity: 44%
Barometer: 30.33 inHg
Visibility: More than 6 mi
Cloud details: Clear
EBLG 211420Z VRB04KT CAVOK 22/09 Q1027 NOSIG

Script developed by  Saratoga-weather.org Adapted for the template by  Weerstation Leuven

You find our weather info also at:

Weather Underground

Midwestern Weather Network

Citizen Weather Observer Program (CWOP)

HAMweather, WeatherForYou, PWS Weather

Equipment we use:

Weather-station
Davis VP2

Weather-program
Cumulus

Davis VP2

Cumulus